Time;durP1;ratioP1;P1;durP2;ratioP2;P2;SDS_P1;SDS_P2;PMS_P1;PMS_P2;Temp;Humidity;BMP_temperature;BMP_pressure;BME280_temperature;BME280_humidity;BME280_pressure;Samples;Min_cycle;Max_cycle;Signal;HPM_P1;HPM_P2
2023/04/26 00:01:36;;;;;;;1.67;1.58;;;;;;;9.65;93.39;95469.50;5074726;28;20127;-62
2023/04/26 00:04:04;;;;;;;11.35;1.73;;;;;;;9.68;93.57;95465.88;5074687;28;20091;-64
2023/04/26 00:06:31;;;;;;;3.92;1.70;;;;;;;9.70;93.58;95462.25;5074548;28;20158;-65
2023/04/26 00:08:58;;;;;;;2.15;2.00;;;;;;;9.73;93.42;95456.88;5074663;28;20075;-64
2023/04/26 00:11:26;;;;;;;2.67;2.08;;;;;;;9.77;93.14;95461.94;5074458;28;20134;-62
2023/04/26 00:13:54;;;;;;;5.07;1.90;;;;;;;9.75;93.58;95474.25;5074453;28;20053;-66
2023/04/26 00:16:21;;;;;;;2.30;2.10;;;;;;;9.77;93.67;95467.16;5074490;28;20056;-61
2023/04/26 00:18:48;;;;;;;3.22;2.03;;;;;;;9.79;93.50;95460.97;5074419;28;20486;-65
2023/04/26 00:21:15;;;;;;;3.15;1.70;;;;;;;9.83;92.97;95453.78;5074379;28;20113;-65
2023/04/26 00:23:42;;;;;;;1.95;1.85;;;;;;;9.85;92.82;95460.63;5074234;28;20491;-60
2023/04/26 00:26:09;;;;;;;1.63;1.52;;;;;;;9.86;92.68;95451.03;5074200;28;20048;-65
2023/04/26 00:28:38;;;;;;;3.92;2.00;;;;;;;9.84;92.67;95450.25;5074181;28;20574;-64
2023/04/26 00:31:06;;;;;;;3.70;1.75;;;;;;;9.86;92.69;95448.41;5074100;28;20076;-65
2023/04/26 00:33:33;;;;;;;5.28;1.60;;;;;;;9.85;92.65;95450.16;5073470;28;20451;-63
2023/04/26 00:36:00;;;;;;;22.73;2.53;;;;;;;9.85;92.51;95446.72;5073793;28;20044;-64
2023/04/26 00:38:27;;;;;;;4.60;2.10;;;;;;;9.83;92.00;95436.38;5073934;28;20091;-63
2023/04/26 00:40:54;;;;;;;10.48;2.30;;;;;;;9.79;92.11;95437.47;5074009;28;20119;-62
2023/04/26 00:43:21;;;;;;;3.08;1.83;;;;;;;9.77;92.01;95436.69;5073857;28;20484;-64
2023/04/26 00:45:50;;;;;;;4.40;1.98;;;;;;;9.81;91.89;95435.59;5073860;28;20155;-61
2023/04/26 00:48:18;;;;;;;2.10;1.90;;;;;;;9.84;91.61;95430.22;5073870;28;20045;-64
2023/04/26 00:50:46;;;;;;;6.38;2.08;;;;;;;9.83;91.45;95425.91;5073889;28;20059;-62
2023/04/26 00:53:15;;;;;;;2.80;2.00;;;;;;;9.82;91.12;95426.81;5073624;28;20059;-65
2023/04/26 00:55:42;;;;;;;3.50;2.00;;;;;;;9.83;91.25;95433.75;5073624;28;20059;-63
2023/04/26 00:58:09;;;;;;;2.30;2.15;;;;;;;9.80;91.37;95423.47;5073611;28;20049;-61
2023/04/26 01:00:36;;;;;;;3.38;2.28;;;;;;;9.81;91.47;95432.16;5073672;28;20095;-62
2023/04/26 01:03:05;;;;;;;5.22;1.75;;;;;;;9.81;91.60;95432.16;5073421;28;20052;-60
2023/04/26 01:05:33;;;;;;;35.97;2.88;;;;;;;9.81;91.46;95425.16;5073434;28;20048;-65
2023/04/26 01:08:01;;;;;;;2.50;1.80;;;;;;;9.79;90.73;95431.38;5073475;28;20140;-66
2023/04/26 01:10:29;;;;;;;3.83;1.73;;;;;;;9.75;90.80;95424.63;5073530;28;20410;-64
2023/04/26 01:12:58;;;;;;;7.75;2.40;;;;;;;9.61;90.75;95423.59;5073320;28;20088;-63
2023/04/26 01:15:26;;;;;;;2.72;1.90;;;;;;;9.61;91.50;95429.63;5073570;28;20040;-62
2023/04/26 01:17:54;;;;;;;3.03;2.38;;;;;;;9.54;91.58;95425.66;5073285;28;20049;-62
2023/04/26 01:20:23;;;;;;;2.17;1.80;;;;;;;9.50;92.39;95426.75;5073372;28;20410;-62
2023/04/26 01:22:51;;;;;;;2.45;2.25;;;;;;;9.43;92.45;95428.84;5073196;28;20044;-64
2023/04/26 01:25:19;;;;;;;4.03;2.03;;;;;;;9.40;93.12;95428.16;5073176;28;20060;-61
2023/04/26 01:27:47;;;;;;;2.47;2.28;;;;;;;9.42;93.35;95419.31;5073177;28;20044;-65
2023/04/26 01:30:14;;;;;;;5.68;3.22;;;;;;;9.40;93.69;95415.09;5073064;28;20470;-62
2023/04/26 01:32:41;;;;;;;5.20;2.80;;;;;;;9.42;93.50;95421.09;5073035;28;20550;-65
2023/04/26 01:35:09;;;;;;;2.70;2.50;;;;;;;9.39;93.87;95414.25;5073087;28;20050;-63
2023/04/26 01:37:36;;;;;;;5.18;2.60;;;;;;;9.42;94.17;95410.66;5073052;28;20128;-61
2023/04/26 01:40:06;;;;;;;3.60;3.10;;;;;;;9.41;93.91;95403.72;5073093;28;20055;-62
2023/04/26 01:42:33;;;;;;;3.63;3.22;;;;;;;9.44;93.66;95404.41;5072751;28;20048;-63
2023/04/26 01:45:00;;;;;;;5.00;2.70;;;;;;;9.43;94.12;95402.75;5072841;28;20053;-62
2023/04/26 01:47:28;;;;;;;6.68;3.22;;;;;;;9.33;93.86;95407.56;5073019;28;20056;-65
2023/04/26 01:49:55;;;;;;;5.45;2.92;;;;;;;9.40;94.25;95399.44;5073002;28;20048;-63
2023/04/26 01:52:23;;;;;;;5.07;2.90;;;;;;;9.40;94.00;95395.06;5072811;28;20076;-64
2023/04/26 01:54:50;;;;;;;22.77;3.55;;;;;;;9.44;94.15;95387.91;5072859;28;20091;-64
2023/04/26 01:57:18;;;;;;;3.45;2.80;;;;;;;9.42;94.15;95392.38;5072867;28;20050;-63
2023/04/26 01:59:45;;;;;;;16.27;3.15;;;;;;;9.46;94.10;95388.69;5072945;28;20563;-65
2023/04/26 02:02:12;;;;;;;5.88;2.97;;;;;;;9.51;93.84;95386.66;5072898;28;20052;-62
2023/04/26 02:04:39;;;;;;;10.93;3.47;;;;;;;9.53;93.42;95381.38;5072811;28;20067;-63
2023/04/26 02:07:07;;;;;;;3.05;2.85;;;;;;;9.56;93.59;95381.19;5072765;28;20049;-63
2023/04/26 02:09:34;;;;;;;4.38;3.47;;;;;;;9.58;93.27;95379.38;5072880;28;20101;-65
2023/04/26 02:12:01;;;;;;;3.70;3.40;;;;;;;9.59;93.14;95379.28;5072785;28;20045;-64
2023/04/26 02:14:30;;;;;;;6.63;3.20;;;;;;;9.57;93.25;95372.47;5072756;28;20079;-64
2023/04/26 02:16:57;;;;;;;5.78;3.17;;;;;;;9.52;93.78;95371.84;5072775;28;20460;-64
2023/04/26 02:19:25;;;;;;;3.85;3.47;;;;;;;9.47;93.89;95374.69;5072672;28;20106;-61
2023/04/26 02:21:54;;;;;;;4.40;3.67;;;;;;;9.48;94.11;95376.38;5072763;28;20551;-61
2023/04/26 02:24:22;;;;;;;4.22;3.83;;;;;;;9.55;94.30;95369.09;5072643;28;20098;-64
2023/04/26 02:26:49;;;;;;;5.72;3.85;;;;;;;9.59;94.10;95366.22;5072621;28;20049;-63
2023/04/26 02:29:16;;;;;;;3.38;3.00;;;;;;;9.67;93.30;95372.81;5072707;28;20048;-63
2023/04/26 02:31:45;;;;;;;3.67;3.35;;;;;;;9.67;93.19;95368.44;5072528;28;20049;-64
2023/04/26 02:34:12;;;;;;;8.18;3.15;;;;;;;9.68;92.90;95367.50;5072529;28;20137;-64
2023/04/26 02:36:39;;;;;;;9.52;3.50;;;;;;;9.66;92.49;95363.31;5072607;28;20140;-63
2023/04/26 02:39:06;;;;;;;5.07;4.00;;;;;;;9.66;92.27;95373.75;5072503;28;20087;-62
2023/04/26 02:41:33;;;;;;;11.00;3.80;;;;;;;9.66;92.23;95371.97;5072353;28;20088;-62
2023/04/26 02:44:00;;;;;;;7.25;3.70;;;;;;;9.68;92.15;95364.03;5072529;28;20061;-63
2023/04/26 02:46:28;;;;;;;8.10;3.35;;;;;;;9.64;92.22;95366.00;5072410;28;20049;-62
2023/04/26 02:48:56;;;;;;;4.97;3.75;;;;;;;9.63;92.21;95371.28;5072406;28;20055;-62
2023/04/26 02:51:23;;;;;;;5.38;3.95;;;;;;;9.63;92.38;95374.72;5072221;28;20049;-62
2023/04/26 02:53:50;;;;;;;3.85;3.47;;;;;;;9.66;91.89;95369.34;5072319;28;20580;-62
2023/04/26 02:56:18;;;;;;;3.78;3.42;;;;;;;9.65;91.86;95370.28;5072312;28;20048;-61
2023/04/26 02:58:45;;;;;;;9.27;3.47;;;;;;;9.67;91.93;95375.44;5075334;28;20047;-61
2023/04/26 03:01:13;;;;;;;3.55;3.25;;;;;;;9.65;91.93;95379.88;5075936;28;20102;-63
2023/04/26 03:03:41;;;;;;;4.80;3.95;;;;;;;9.61;92.31;95381.81;5075953;28;20387;-62
2023/04/26 03:06:10;;;;;;;5.70;3.55;;;;;;;9.61;92.45;95387.88;5075930;28;20054;-61
2023/04/26 03:08:37;;;;;;;6.80;4.00;;;;;;;9.63;92.14;95381.75;5075912;28;20055;-61
2023/04/26 03:11:04;;;;;;;5.85;3.63;;;;;;;9.64;92.01;95388.63;5075775;28;20045;-65
2023/04/26 03:13:31;;;;;;;3.70;3.40;;;;;;;9.60;91.80;95388.78;5075495;28;20092;-63
2023/04/26 03:15:58;;;;;;;8.15;3.92;;;;;;;9.56;91.44;95397.72;5075708;28;20055;-61
2023/04/26 03:18:25;;;;;;;4.13;3.72;;;;;;;9.56;91.69;95402.09;5075669;28;20421;-61
2023/04/26 03:20:53;;;;;;;4.55;3.55;;;;;;;9.56;91.97;95407.31;5075495;28;20048;-65
2023/04/26 03:23:24;;;;;;;4.53;4.13;;;;;;;9.56;91.44;95409.91;5075505;28;20095;-61
2023/04/26 03:25:51;;;;;;;5.40;4.25;;;;;;;9.52;91.54;95414.47;5075469;28;20071;-63
2023/04/26 03:28:18;;;;;;;5.43;4.18;;;;;;;9.57;92.05;95414.25;5075351;28;20048;-63
2023/04/26 03:30:48;;;;;;;5.88;4.20;;;;;;;9.52;91.80;95419.69;5075446;28;20095;-62
2023/04/26 03:33:16;;;;;;;4.90;4.03;;;;;;;9.51;92.15;95423.22;5075237;28;20052;-63
2023/04/26 03:35:43;;;;;;;6.65;3.75;;;;;;;9.43;92.11;95426.25;5075392;28;20459;-63
2023/04/26 03:38:10;;;;;;;7.65;4.43;;;;;;;9.40;91.98;95415.94;5075310;28;20051;-63
2023/04/26 03:40:40;;;;;;;4.18;3.78;;;;;;;9.42;91.86;95413.25;5075148;28;20044;-63
2023/04/26 03:43:08;;;;;;;9.68;4.07;;;;;;;9.42;92.32;95415.88;5074891;28;20060;-65
2023/04/26 03:45:36;;;;;;;5.82;3.83;;;;;;;9.43;92.82;95418.41;5075118;28;20051;-62
2023/04/26 03:48:03;;;;;;;9.82;4.20;;;;;;;9.46;92.86;95413.00;5075207;28;20049;-61
2023/04/26 03:50:30;;;;;;;5.10;3.95;;;;;;;9.44;92.75;95412.25;5075010;28;20049;-64
2023/04/26 03:53:00;;;;;;;5.60;3.25;;;;;;;9.42;93.19;95405.44;5074954;28;20052;-64
2023/04/26 03:55:27;;;;;;;4.68;3.70;;;;;;;9.35;93.65;95404.88;5075022;28;20045;-62
2023/04/26 03:57:56;;;;;;;4.22;3.30;;;;;;;9.20;93.73;95409.97;5074781;28;20555;-61
2023/04/26 04:00:24;;;;;;;4.57;4.13;;;;;;;9.18;93.76;95419.63;5074811;28;20076;-61
2023/04/26 04:02:51;;;;;;;7.07;4.25;;;;;;;9.27;94.39;95433.16;5074658;28;20055;-65
2023/04/26 04:05:19;;;;;;;7.35;3.92;;;;;;;9.32;94.24;95425.91;5074741;28;20048;-65
2023/04/26 04:07:46;;;;;;;10.52;4.00;;;;;;;9.38;94.20;95436.06;5074717;28;20045;-64
2023/04/26 04:10:15;;;;;;;4.03;3.63;;;;;;;9.43;94.20;95430.59;5074882;28;20052;-62
2023/04/26 04:12:42;;;;;;;4.10;3.70;;;;;;;9.46;93.69;95435.66;5074422;28;20557;-61
2023/04/26 04:15:11;;;;;;;4.25;3.85;;;;;;;9.51;93.40;95441.47;5074453;28;20060;-65
2023/04/26 04:17:40;;;;;;;4.05;3.65;;;;;;;9.52;93.15;95447.56;5074501;28;20067;-64
2023/04/26 04:20:08;;;;;;;5.13;4.30;;;;;;;9.56;93.25;95446.47;5074316;28;20048;-64
2023/04/26 04:22:38;;;;;;;6.22;4.45;;;;;;;9.60;93.42;95442.78;5074296;28;20122;-63
2023/04/26 04:25:06;;;;;;;10.65;3.80;;;;;;;9.58;93.46;95442.84;5074266;28;20134;-64
2023/04/26 04:27:35;;;;;;;4.38;3.45;;;;;;;9.56;93.18;95446.47;5074181;28;20044;-65
2023/04/26 04:30:06;;;;;;;6.63;3.30;;;;;;;9.52;93.26;95450.16;5074254;28;20509;-63
2023/04/26 04:32:36;;;;;;;3.75;3.33;;;;;;;9.49;93.32;95438.13;5074086;28;20075;-64
2023/04/26 04:35:04;;;;;;;6.38;4.18;;;;;;;9.51;93.69;95430.22;5074222;28;20124;-62
2023/04/26 04:37:32;;;;;;;4.35;3.55;;;;;;;9.50;94.06;95434.59;5074027;28;20048;-62
2023/04/26 04:40:00;;;;;;;8.75;4.20;;;;;;;9.54;93.88;95438.72;5074068;28;20064;-65
2023/04/26 04:42:27;;;;;;;4.50;3.40;;;;;;;9.59;93.89;95438.47;5073789;28;20060;-61
2023/04/26 04:44:55;;;;;;;4.47;3.85;;;;;;;9.61;93.70;95447.91;5073850;28;20055;-63
2023/04/26 04:47:23;;;;;;;4.25;3.85;;;;;;;9.65;93.02;95446.00;5073880;28;20053;-64
2023/04/26 04:49:53;;;;;;;5.25;3.53;;;;;;;9.66;93.12;95442.47;5073982;28;20071;-64
2023/04/26 04:52:21;;;;;;;5.30;3.88;;;;;;;9.70;93.09;95443.16;5073947;28;20493;-64
2023/04/26 04:54:49;;;;;;;5.32;4.10;;;;;;;9.75;93.46;95445.53;5073743;28;20059;-65
2023/04/26 04:57:17;;;;;;;5.00;3.63;;;;;;;9.79;93.49;95447.06;5073666;28;20475;-62
2023/04/26 04:59:45;;;;;;;6.28;3.55;;;;;;;9.81;93.86;95446.03;5073721;28;20101;-62
2023/04/26 05:02:13;;;;;;;4.13;3.70;;;;;;;9.91;93.65;95448.19;5073571;28;20059;-62
2023/04/26 05:04:41;;;;;;;5.03;4.32;;;;;;;9.94;93.48;95438.38;5073590;28;20132;-61
2023/04/26 05:07:10;;;;;;;8.95;5.35;;;;;;;9.95;93.52;95449.69;5073550;28;20482;-62
2023/04/26 05:09:38;;;;;;;12.35;5.93;;;;;;;9.90;93.42;95442.09;5073526;28;20056;-62
2023/04/26 05:12:05;;;;;;;6.95;4.60;;;;;;;9.91;93.11;95443.81;5073376;28;20132;-60
2023/04/26 05:14:33;;;;;;;5.55;3.85;;;;;;;9.89;92.78;95439.56;5073304;28;20088;-65
2023/04/26 05:17:00;;;;;;;6.97;4.00;;;;;;;9.88;92.79;95438.75;5073335;28;20067;-65
2023/04/26 05:19:27;;;;;;;4.10;3.70;;;;;;;9.93;93.38;95435.88;5073333;28;20106;-63
2023/04/26 05:21:54;;;;;;;4.32;3.70;;;;;;;9.95;93.09;95436.63;5073025;28;20048;-61
2023/04/26 05:24:23;;;;;;;5.90;3.90;;;;;;;9.94;93.10;95427.13;5073390;28;20467;-64
2023/04/26 05:26:50;;;;;;;5.30;3.58;;;;;;;9.92;93.14;95427.19;5073219;28;20097;-66
2023/04/26 05:29:17;;;;;;;4.85;4.35;;;;;;;9.91;93.30;95429.88;5073156;28;20505;-63
2023/04/26 05:31:44;;;;;;;4.60;4.20;;;;;;;9.92;94.00;95428.97;5073178;28;20510;-64
2023/04/26 05:34:12;;;;;;;6.47;3.40;;;;;;;9.95;94.07;95434.88;5073190;28;20056;-61
2023/04/26 05:36:39;;;;;;;4.18;3.47;;;;;;;9.96;93.00;95426.09;5072598;28;20045;-62
2023/04/26 05:39:07;;;;;;;4.45;3.40;;;;;;;10.00;93.05;95424.19;5073161;28;20044;-62
2023/04/26 05:41:36;;;;;;;3.72;3.42;;;;;;;10.10;93.42;95434.97;5072812;28;20051;-63
2023/04/26 05:44:03;;;;;;;6.38;3.67;;;;;;;10.13;94.68;95436.56;5073075;28;20059;-63
2023/04/26 05:46:30;;;;;;;4.22;3.83;;;;;;;10.14;95.21;95428.66;5073147;28;20098;-61
2023/04/26 05:48:57;;;;;;;3.80;3.47;;;;;;;10.27;95.69;95430.59;5073150;28;20044;-62
2023/04/26 05:51:25;;;;;;;4.25;3.60;;;;;;;10.33;95.56;95427.66;5073002;28;20127;-62
2023/04/26 05:53:52;;;;;;;6.78;3.70;;;;;;;10.36;96.21;95433.53;5072968;28;20427;-64
2023/04/26 05:56:20;;;;;;;3.88;3.55;;;;;;;10.52;96.31;95442.34;5073023;28;20052;-63
2023/04/26 05:58:48;;;;;;;8.35;3.63;;;;;;;10.60;96.05;95435.75;5072959;28;20406;-62
2023/04/26 06:01:15;;;;;;;4.45;3.42;;;;;;;10.72;94.40;95434.22;5072925;28;20072;-65
2023/04/26 06:03:44;;;;;;;3.53;2.90;;;;;;;10.85;92.86;95433.53;5072844;28;20123;-64
2023/04/26 06:06:11;;;;;;;6.63;3.28;;;;;;;11.01;92.47;95440.53;5072910;28;20607;-63
2023/04/26 06:08:38;;;;;;;6.45;3.10;;;;;;;11.05;89.66;95439.41;5072791;28;20053;-63
2023/04/26 06:11:06;;;;;;;3.50;2.92;;;;;;;11.11;90.10;95445.13;5072784;28;20049;-63
2023/04/26 06:13:33;;;;;;;4.35;3.20;;;;;;;11.17;90.99;95440.50;5072708;28;20048;-61
2023/04/26 06:16:02;;;;;;;4.65;3.20;;;;;;;11.27;90.28;95441.63;5072839;28;20087;-63
2023/04/26 06:18:29;;;;;;;3.22;2.97;;;;;;;11.35;88.62;95446.44;5072811;28;20055;-63
2023/04/26 06:20:56;;;;;;;2.90;2.67;;;;;;;11.45;87.81;95444.09;5072838;28;20048;-63
2023/04/26 06:23:23;;;;;;;3.40;2.80;;;;;;;11.56;86.99;95446.09;5072681;28;20046;-62
2023/04/26 06:25:50;;;;;;;6.00;2.70;;;;;;;11.65;85.78;95440.28;5072655;28;20052;-62
2023/04/26 06:28:17;;;;;;;4.15;2.90;;;;;;;11.74;85.67;95441.53;5072618;28;20079;-61
2023/04/26 06:30:45;;;;;;;2.80;2.50;;;;;;;11.83;84.01;95437.50;5072672;28;20094;-64
2023/04/26 06:33:14;;;;;;;4.38;3.10;;;;;;;11.90;83.47;95438.81;5074730;28;20102;-62
2023/04/26 06:35:41;;;;;;;2.60;2.40;;;;;;;11.99;82.68;95432.16;5076421;28;20045;-62
2023/04/26 06:38:08;;;;;;;3.05;2.78;;;;;;;12.06;83.04;95433.47;5076328;28;20054;-61
2023/04/26 06:40:36;;;;;;;3.38;3.08;;;;;;;12.28;83.52;95437.41;5076304;28;20040;-64
2023/04/26 06:43:04;;;;;;;4.68;2.55;;;;;;;12.76;82.32;95433.53;5076081;28;20048;-63
2023/04/26 06:45:32;;;;;;;2.75;2.55;;;;;;;13.20;79.32;95438.63;5076253;28;20091;-63
2023/04/26 06:48:00;;;;;;;2.30;2.10;;;;;;;13.71;80.76;95437.03;5076132;28;20052;-62
2023/04/26 06:50:29;;;;;;;2.90;2.40;;;;;;;13.96;76.73;95437.97;5076115;28;20055;-63
2023/04/26 06:52:56;;;;;;;1.80;1.70;;;;;;;14.39;70.24;95442.03;5076028;28;20051;-66
2023/04/26 06:55:24;;;;;;;2.42;2.22;;;;;;;15.02;71.95;95439.28;5075934;28;20056;-63
2023/04/26 06:57:55;;;;;;;2.75;2.10;;;;;;;15.75;72.63;95440.13;5076026;28;20097;-64
2023/04/26 07:00:23;;;;;;;3.20;2.15;;;;;;;16.35;66.07;95445.22;5076000;28;20490;-65
2023/04/26 07:02:50;;;;;;;2.30;2.10;;;;;;;16.89;60.74;95442.69;5075992;28;20067;-63
2023/04/26 07:05:18;;;;;;;2.10;1.90;;;;;;;17.56;63.78;95439.09;5075874;28;20052;-62
2023/04/26 07:07:46;;;;;;;2.95;1.73;;;;;;;17.85;56.92;95441.06;5075765;28;20122;-64
2023/04/26 07:10:14;;;;;;;5.50;1.85;;;;;;;17.94;54.24;95444.75;5075805;28;20045;-61
2023/04/26 07:12:42;;;;;;;2.92;2.00;;;;;;;18.20;53.83;95441.72;5075694;28;20041;-60
2023/04/26 07:15:10;;;;;;;3.03;1.70;;;;;;;18.34;47.49;95447.59;5075522;28;20095;-61
2023/04/26 07:17:37;;;;;;;2.25;1.90;;;;;;;18.22;49.31;95445.06;5075720;28;20080;-64
2023/04/26 07:20:05;;;;;;;1.90;1.80;;;;;;;18.32;53.37;95437.16;5075629;28;20049;-62
2023/04/26 07:22:32;;;;;;;2.05;1.90;;;;;;;18.44;51.89;95440.53;5075638;28;20115;-63
2023/04/26 07:25:00;;;;;;;2.25;2.08;;;;;;;18.42;49.78;95430.09;5075482;28;20054;-65
2023/04/26 07:27:28;;;;;;;1.63;1.52;;;;;;;18.54;46.21;95440.56;5075466;28;20049;-64
2023/04/26 07:29:56;;;;;;;2.30;1.80;;;;;;;18.54;50.75;95435.25;5075396;28;20049;-62
2023/04/26 07:32:23;;;;;;;1.77;1.67;;;;;;;18.56;48.20;95436.81;5075292;28;20059;-61
2023/04/26 07:34:50;;;;;;;1.90;1.70;;;;;;;18.69;48.10;95439.22;5075276;28;20127;-64
2023/04/26 07:37:17;;;;;;;1.55;1.45;;;;;;;18.68;46.61;95444.66;5075258;28;20040;-61
2023/04/26 07:39:44;;;;;;;1.83;1.70;;;;;;;18.69;46.80;95447.16;5075344;28;20067;-61
2023/04/26 07:42:13;;;;;;;1.80;1.70;;;;;;;18.74;48.78;95436.16;5074990;28;20132;-64
2023/04/26 07:44:40;;;;;;;2.58;1.85;;;;;;;18.88;52.88;95442.91;5074851;28;20102;-61
2023/04/26 07:47:12;;;;;;;4.53;1.90;;;;;;;18.94;50.23;95439.66;5075131;28;20052;-62
2023/04/26 07:49:40;;;;;;;3.38;1.70;;;;;;;18.77;48.47;95437.69;5075111;28;20123;-63
2023/04/26 07:52:09;;;;;;;6.35;2.63;;;;;;;19.01;51.67;95447.94;5075049;28;20132;-62
2023/04/26 07:54:36;;;;;;;1.80;1.70;;;;;;;19.16;51.29;95448.38;5074841;28;20079;-63
2023/04/26 07:57:03;;;;;;;2.20;2.00;;;;;;;19.09;47.10;95447.28;5074975;28;20048;-64
2023/04/26 07:59:31;;;;;;;6.13;2.30;;;;;;;18.92;51.04;95448.75;5074898;28;20059;-61
2023/04/26 08:01:58;;;;;;;2.70;2.17;;;;;;;18.69;49.00;95449.81;5074772;28;20040;-62
2023/04/26 08:04:33;;;;;;;5.10;2.50;;;;;;;18.63;50.19;95449.53;5074794;28;20048;-61
2023/04/26 08:07:01;;;;;;;2.95;2.30;;;;;;;18.59;53.13;95446.31;5074751;28;20109;-61
2023/04/26 08:09:29;;;;;;;4.20;2.35;;;;;;;18.13;53.38;95441.41;5074669;28;20044;-63
2023/04/26 08:11:57;;;;;;;2.58;2.38;;;;;;;18.00;53.05;95446.06;5074682;28;20406;-61
2023/04/26 08:14:24;;;;;;;3.70;2.58;;;;;;;17.85;54.32;95443.72;5074586;28;20049;-63
2023/04/26 08:16:53;;;;;;;2.75;2.42;;;;;;;17.64;53.99;95447.22;5074408;28;20056;-61
2023/04/26 08:19:20;;;;;;;3.80;2.33;;;;;;;17.20;52.42;95443.84;5074411;28;20051;-62
2023/04/26 08:21:47;;;;;;;3.08;2.78;;;;;;;16.93;54.04;95443.31;5074368;28;20437;-64
2023/04/26 08:24:14;;;;;;;3.83;2.28;;;;;;;16.84;55.69;95446.69;5074462;28;20048;-63
2023/04/26 08:26:41;;;;;;;6.40;2.72;;;;;;;16.38;54.37;95446.78;5074395;28;20048;-60
2023/04/26 08:29:08;;;;;;;4.18;2.45;;;;;;;16.14;58.01;95447.72;5074239;28;20048;-64
2023/04/26 08:31:36;;;;;;;7.53;2.90;;;;;;;16.00;58.31;95448.78;5074181;28;20078;-64
2023/04/26 08:34:05;;;;;;;3.58;3.05;;;;;;;16.15;58.55;95446.78;5074081;28;20045;-65
2023/04/26 08:36:36;;;;;;;3.50;3.10;;;;;;;16.23;58.63;95440.91;5074085;28;20045;-64
2023/04/26 08:39:03;;;;;;;3.75;3.08;;;;;;;16.36;58.08;95446.88;5074088;28;20193;-62
2023/04/26 08:41:36;;;;;;;2.83;2.30;;;;;;;16.34;55.92;95446.16;5073781;28;20502;-64
2023/04/26 08:44:05;;;;;;;2.28;2.10;;;;;;;16.42;56.36;95445.56;5073921;28;20563;-64
2023/04/26 08:46:38;;;;;;;3.20;2.63;;;;;;;16.53;59.43;95442.06;5073891;28;20120;-63
2023/04/26 08:49:17;;;;;;;8.40;2.90;;;;;;;16.84;58.99;95449.31;5073813;28;20135;-64
2023/04/26 08:51:45;;;;;;;3.20;2.30;;;;;;;17.32;56.09;95442.81;5073858;28;20087;-63
2023/04/26 08:54:16;;;;;;;4.68;2.17;;;;;;;17.60;54.48;95437.88;5073901;28;20091;-63
2023/04/26 08:56:43;;;;;;;3.10;2.38;;;;;;;17.53;52.73;95440.22;5073347;28;20051;-61
2023/04/26 08:59:11;;;;;;;3.50;2.20;;;;;;;17.30;52.28;95448.25;5073599;28;20403;-65
2023/04/26 09:01:40;;;;;;;2.53;2.20;;;;;;;17.27;52.81;95442.34;5073583;28;20098;-65
2023/04/26 09:04:10;;;;;;;2.72;2.47;;;;;;;17.25;52.87;95453.06;5073648;28;20060;-62
2023/04/26 09:06:38;;;;;;;2.97;2.30;;;;;;;17.42;53.12;95443.75;5073558;28;20387;-63
2023/04/26 09:09:10;;;;;;;5.65;1.90;;;;;;;17.39;50.87;95449.28;5073525;28;20512;-66
2023/04/26 09:12:02;;;;;;;2.47;2.13;;;;;;;17.71;54.53;95438.78;5073445;28;20044;-65
2023/04/26 09:14:29;;;;;;;3.30;1.50;;;;;;;17.74;50.03;95442.00;5063263;28;20059;-63
2023/04/26 09:16:57;;;;;;;5.65;2.08;;;;;;;17.84;52.07;95441.22;5073361;28;20049;-61
2023/04/26 09:19:37;;;;;;;1.73;1.63;;;;;;;17.66;52.15;95439.16;5073419;28;20433;-61
2023/04/26 09:22:06;;;;;;;3.83;2.10;;;;;;;17.72;50.39;95441.28;5073297;28;20057;-63
2023/04/26 09:24:51;;;;;;;1.75;1.52;;;;;;;17.76;48.36;95439.25;5073246;28;20409;-64
2023/04/26 09:27:18;;;;;;;2.15;1.90;;;;;;;17.41;48.59;95443.88;5073418;28;20122;-62
2023/04/26 09:29:59;;;;;;;1.80;1.70;;;;;;;17.12;50.77;95439.16;5073348;28;20101;-61
2023/04/26 09:32:28;;;;;;;1.70;1.60;;;;;;;17.17;48.66;95445.78;5073203;28;20052;-63
2023/04/26 09:34:56;;;;;;;3.08;1.88;;;;;;;17.21;49.77;95446.34;5073254;28;20048;-64
2023/04/26 09:37:23;;;;;;;5.05;1.88;;;;;;;17.28;51.04;95449.34;5073106;28;20071;-63
2023/04/26 09:39:51;;;;;;;2.00;1.80;;;;;;;17.39;51.13;95441.34;5073273;28;20128;-65
2023/04/26 09:42:19;;;;;;;2.10;1.90;;;;;;;17.41;48.32;95438.59;5072857;28;20506;-60
2023/04/26 09:44:46;;;;;;;2.45;1.95;;;;;;;17.32;47.43;95437.53;5073029;28;20048;-60
2023/04/26 09:47:13;;;;;;;2.38;1.98;;;;;;;17.34;48.71;95437.41;5072979;28;20087;-65
2023/04/26 09:49:49;;;;;;;2.90;1.67;;;;;;;17.34;48.77;95432.13;5072992;28;20131;-63
2023/04/26 09:52:19;;;;;;;2.10;1.90;;;;;;;17.36;49.70;95430.19;5072973;28;20048;-62
2023/04/26 09:54:47;;;;;;;3.22;2.00;;;;;;;17.41;49.96;95433.28;5072862;28;20434;-62
2023/04/26 09:57:16;;;;;;;1.92;1.80;;;;;;;17.31;51.16;95441.16;5072935;28;20052;-64
2023/04/26 09:59:45;;;;;;;2.38;2.05;;;;;;;17.06;51.80;95435.19;5072852;28;20468;-62
2023/04/26 10:02:19;;;;;;;2.42;1.83;;;;;;;16.91;53.47;95435.50;5072990;28;20410;-63
2023/04/26 10:04:48;;;;;;;4.95;2.17;;;;;;;16.65;52.81;95443.72;5072927;28;20084;-62
2023/04/26 10:07:18;;;;;;;2.05;1.80;;;;;;;16.29;55.09;95441.25;5075299;28;20037;-65
2023/04/26 10:09:47;;;;;;;2.10;1.90;;;;;;;16.05;58.74;95441.38;5076909;28;20048;-64
2023/04/26 10:12:16;;;;;;;1.80;1.70;;;;;;;15.98;59.90;95445.47;5076895;28;20051;-62
2023/04/26 10:14:45;;;;;;;2.55;1.85;;;;;;;15.72;58.37;95441.19;5076776;28;20515;-64
2023/04/26 10:17:13;;;;;;;1.73;1.63;;;;;;;15.43;60.73;95427.56;5076752;28;20055;-62
2023/04/26 10:19:43;;;;;;;1.98;1.48;;;;;;;15.34;60.50;95431.75;5076737;28;20076;-65
2023/04/26 10:22:16;;;;;;;4.93;1.85;;;;;;;15.31;59.78;95424.91;5076688;28;20075;-63
2023/04/26 10:24:46;;;;;;;4.45;2.20;;;;;;;15.37;59.74;95421.81;5076683;28;20141;-62
2023/04/26 10:27:13;;;;;;;3.00;2.33;;;;;;;15.44;63.71;95410.81;5076574;28;20044;-62
2023/04/26 10:30:10;;;;;;;2.92;1.70;;;;;;;15.37;60.63;95400.75;5076553;28;20052;-61
2023/04/26 10:33:16;;;;;;;4.07;1.80;;;;;;;15.08;62.49;95395.03;5076526;28;20126;-62
2023/04/26 10:36:05;;;;;;;6.97;1.63;;;;;;;14.69;62.97;95401.28;5076398;28;20059;-63
2023/04/26 10:38:34;;;;;;;2.80;2.10;;;;;;;14.49;65.21;95405.38;5076428;28;20054;-60
2023/04/26 10:41:33;;;;;;;3.30;1.92;;;;;;;14.34;64.18;95404.66;5076208;28;20491;-64
2023/04/26 10:44:37;;;;;;;1.75;1.65;;;;;;;14.26;64.17;95407.84;5076270;28;20046;-65
2023/04/26 10:47:09;;;;;;;1.85;1.75;;;;;;;14.33;66.41;95408.25;5076128;28;20091;-65
2023/04/26 10:49:47;;;;;;;2.25;2.05;;;;;;;14.34;68.45;95408.16;5076136;28;20094;-62
2023/04/26 10:52:16;;;;;;;3.15;2.70;;;;;;;14.38;69.29;95411.38;5076025;28;20132;-64
2023/04/26 10:54:51;;;;;;;2.60;2.40;;;;;;;14.37;69.46;95412.34;5075887;28;20048;-63
2023/04/26 10:57:20;;;;;;;2.20;2.00;;;;;;;14.32;69.59;95419.72;5075970;28;20482;-64
2023/04/26 11:00:25;;;;;;;2.72;2.25;;;;;;;14.45;69.91;95424.97;5075983;28;20049;-64
2023/04/26 11:03:07;;;;;;;3.35;2.58;;;;;;;14.52;69.00;95423.56;5076084;28;20098;-63
2023/04/26 11:05:37;;;;;;;2.55;2.35;;;;;;;14.40;67.43;95420.88;5075784;28;20487;-62
2023/04/26 11:08:05;;;;;;;2.08;1.90;;;;;;;14.45;63.72;95425.78;5075845;28;20049;-63
2023/04/26 11:10:33;;;;;;;3.17;1.80;;;;;;;14.49;63.94;95424.63;5075798;28;20061;-62
2023/04/26 11:13:04;;;;;;;2.58;2.38;;;;;;;14.49;63.90;95415.91;5075756;28;20394;-62
2023/04/26 11:15:32;;;;;;;2.78;2.20;;;;;;;14.36;63.78;95410.69;5075599;28;20048;-64
2023/04/26 11:18:01;;;;;;;2.20;2.00;;;;;;;14.35;64.71;95414.25;5075003;28;20044;-65
2023/04/26 11:20:31;;;;;;;2.93;2.60;;;;;;;14.40;65.87;95414.75;5075811;28;20044;-63
2023/04/26 11:22:58;;;;;;;3.70;1.92;;;;;;;14.36;64.84;95408.88;5075662;28;20045;-62
2023/04/26 11:25:27;;;;;;;6.22;2.50;;;;;;;14.30;65.17;95411.13;5075510;28;20048;-65
2023/04/26 11:28:03;;;;;;;2.28;2.08;;;;;;;14.33;65.67;95403.81;5075422;28;20482;-66
2023/04/26 11:30:31;;;;;;;2.22;2.03;;;;;;;14.32;64.55;95407.41;5075608;28;20041;-62
2023/04/26 11:32:59;;;;;;;2.60;1.98;;;;;;;14.29;66.09;95402.38;5075524;28;20044;-62
2023/04/26 11:35:28;;;;;;;2.10;2.00;;;;;;;14.17;63.96;95398.00;5075178;28;20055;-64
2023/04/26 11:37:59;;;;;;;2.08;1.83;;;;;;;13.95;62.20;95397.72;5075254;28;20051;-62
2023/04/26 11:40:29;;;;;;;3.95;2.08;;;;;;;13.86;64.42;95401.81;5075225;28;20131;-61
2023/04/26 11:43:00;;;;;;;2.17;1.97;;;;;;;13.80;65.27;95393.50;5074982;28;20059;-63
2023/04/26 11:45:29;;;;;;;2.15;1.90;;;;;;;13.81;62.90;95400.47;5075097;28;20050;-64